createdAt,value
2023-05-21T00:01:45.636Z,77.58
2023-05-21T00:04:15.940Z,77.54
2023-05-21T00:06:43.662Z,76.11
2023-05-21T00:09:13.200Z,77.34
2023-05-21T00:11:40.939Z,76.63
2023-05-21T00:14:08.870Z,77.08
2023-05-21T00:16:38.375Z,77.92
2023-05-21T00:19:06.190Z,77.88
2023-05-21T00:21:34.733Z,77.69
2023-05-21T00:24:02.486Z,77.50
2023-05-21T00:26:30.599Z,77.87
2023-05-21T00:28:58.457Z,77.81
2023-05-21T00:31:26.767Z,78.09
2023-05-21T00:33:55.884Z,78.22
2023-05-21T00:36:25.442Z,78.64
2023-05-21T00:38:53.529Z,77.72
2023-05-21T00:41:23.344Z,76.58
2023-05-21T00:43:51.033Z,76.62
2023-05-21T00:46:21.150Z,76.58
2023-05-21T00:48:50.433Z,77.47
2023-05-21T00:51:22.197Z,76.19
2023-05-21T00:53:52.462Z,76.81
2023-05-21T00:56:22.020Z,77.19
2023-05-21T00:58:51.722Z,76.64
2023-05-21T01:01:19.777Z,77.27
2023-05-21T01:03:48.548Z,77.75
2023-05-21T01:06:17.028Z,75.88
2023-05-21T01:08:46.792Z,75.59
2023-05-21T01:11:15.406Z,76.07
2023-05-21T01:13:44.836Z,74.91
2023-05-21T01:16:13.512Z,75.68
2023-05-21T01:18:44.074Z,75.70
2023-05-21T01:21:13.615Z,76.79
2023-05-21T01:24:05.824Z,75.32
2023-05-21T01:26:38.361Z,76.55
2023-05-21T01:29:07.766Z,76.78
2023-05-21T01:31:44.967Z,76.40
2023-05-21T01:34:17.632Z,75.91
2023-05-21T01:36:54.503Z,75.64
2023-05-21T01:39:29.052Z,77.10
2023-05-21T01:41:57.904Z,76.53
2023-05-21T01:44:27.690Z,76.05
2023-05-21T01:46:58.423Z,76.49
2023-05-21T01:49:26.885Z,76.66
2023-05-21T01:51:55.148Z,76.35
2023-05-21T01:54:24.605Z,77.18
2023-05-21T01:56:52.593Z,77.00
2023-05-21T01:59:21.262Z,77.55
2023-05-21T02:01:49.126Z,78.69
2023-05-21T02:04:16.980Z,78.55
2023-05-21T02:06:44.764Z,78.37
2023-05-21T02:09:12.751Z,78.12
2023-05-21T02:11:41.805Z,79.27
2023-05-21T02:14:10.802Z,78.74
2023-05-21T02:16:39.063Z,79.59
2023-05-21T02:19:07.474Z,79.67
2023-05-21T02:21:35.200Z,79.96
2023-05-21T02:24:03.133Z,80.62
2023-05-21T02:26:31.445Z,80.73
2023-05-21T02:29:01.312Z,80.74
2023-05-21T02:31:29.929Z,81.17
2023-05-21T02:33:58.049Z,80.61
2023-05-21T02:36:28.716Z,81.82
2023-05-21T02:38:58.044Z,82.15
2023-05-21T02:41:26.881Z,82.09
2023-05-21T02:43:55.242Z,81.87
2023-05-21T02:46:24.531Z,81.79
2023-05-21T02:48:53.596Z,82.27
2023-05-21T02:51:21.447Z,82.74
2023-05-21T02:53:49.741Z,82.96
2023-05-21T02:56:17.458Z,83.07
2023-05-21T02:58:45.117Z,83.35
2023-05-21T03:01:13.331Z,83.40
2023-05-21T03:03:42.403Z,83.22
2023-05-21T03:06:10.993Z,83.23
2023-05-21T03:08:39.457Z,82.70
2023-05-21T03:11:07.501Z,82.68
2023-05-21T03:13:35.642Z,83.01
2023-05-21T03:16:03.333Z,82.96
2023-05-21T03:18:32.780Z,83.59
2023-05-21T03:21:01.806Z,83.78
2023-05-21T03:23:29.714Z,83.46
2023-05-21T03:25:58.116Z,83.26
2023-05-21T03:28:25.874Z,83.29
2023-05-21T03:30:54.023Z,83.33
2023-05-21T03:33:41.307Z,81.86
2023-05-21T03:36:22.108Z,83.21
2023-05-21T03:38:49.847Z,83.24
2023-05-21T03:41:17.608Z,83.71
2023-05-21T03:43:50.179Z,84.06
2023-05-21T03:46:19.226Z,83.16
2023-05-21T03:49:06.076Z,83.90
2023-05-21T03:51:38.280Z,83.93
2023-05-21T03:54:08.044Z,82.74
2023-05-21T03:56:37.984Z,81.78
2023-05-21T03:59:06.273Z,82.81
2023-05-21T04:01:34.866Z,82.90
2023-05-21T04:04:03.943Z,82.37
2023-05-21T04:06:32.002Z,81.53
2023-05-21T04:09:01.318Z,82.54
2023-05-21T04:11:29.108Z,81.80
2023-05-21T04:13:56.906Z,82.35
2023-05-21T04:16:24.728Z,82.56
2023-05-21T04:18:55.527Z,83.26
2023-05-21T04:21:24.954Z,83.64
2023-05-21T04:23:54.164Z,82.71
2023-05-21T04:26:34.297Z,83.54
2023-05-21T04:29:04.121Z,83.15
2023-05-21T04:31:32.964Z,83.35
2023-05-21T04:34:03.901Z,83.32
2023-05-21T04:36:33.769Z,83.32
2023-05-21T04:39:02.066Z,82.75
2023-05-21T04:41:31.460Z,82.59
2023-05-21T04:44:01.173Z,82.89
2023-05-21T04:46:32.524Z,83.08
2023-05-21T04:49:02.778Z,81.61
2023-05-21T04:51:30.998Z,82.50
2023-05-21T04:54:00.375Z,82.16
2023-05-21T04:56:28.170Z,82.55
2023-05-21T04:58:59.088Z,81.94
2023-05-21T05:01:29.323Z,81.26
2023-05-21T05:03:57.471Z,80.31
2023-05-21T05:06:26.698Z,80.05
2023-05-21T05:08:56.316Z,78.82
2023-05-21T05:11:24.061Z,79.13
2023-05-21T05:13:53.112Z,78.89
2023-05-21T05:16:25.687Z,79.49
2023-05-21T05:18:54.145Z,78.48
2023-05-21T05:21:24.035Z,78.32
2023-05-21T05:23:52.051Z,78.52
2023-05-21T05:26:23.694Z,78.10
2023-05-21T05:28:51.481Z,78.44
2023-05-21T05:31:20.076Z,78.26
2023-05-21T05:33:49.477Z,78.14
2023-05-21T05:36:17.836Z,77.14
2023-05-21T05:38:45.627Z,76.90
2023-05-21T05:41:13.510Z,77.18
2023-05-21T05:43:42.000Z,76.05
2023-05-21T05:46:10.570Z,75.89
2023-05-21T05:48:38.264Z,75.43
2023-05-21T05:51:07.807Z,75.95
2023-05-21T05:53:36.367Z,75.27
2023-05-21T05:56:04.695Z,74.70
2023-05-21T05:58:32.419Z,74.75
2023-05-21T06:01:10.051Z,75.15
2023-05-21T06:03:37.806Z,74.24
2023-05-21T06:06:14.751Z,75.58
2023-05-21T06:08:42.628Z,75.68
2023-05-21T06:11:11.179Z,75.25
2023-05-21T06:13:38.949Z,74.10
2023-05-21T06:16:10.204Z,75.52
2023-05-21T06:18:38.878Z,76.50
2023-05-21T06:21:07.000Z,76.24
2023-05-21T06:23:37.748Z,75.97
2023-05-21T06:26:06.461Z,76.81
2023-05-21T06:28:34.772Z,76.76
2023-05-21T06:31:02.966Z,76.03
2023-05-21T06:33:33.255Z,77.30
2023-05-21T06:36:01.904Z,76.07
2023-05-21T06:38:29.681Z,76.32
2023-05-21T06:41:00.000Z,76.75
2023-05-21T06:44:03.159Z,76.32
2023-05-21T06:46:49.543Z,74.91
2023-05-21T06:49:19.889Z,75.71
2023-05-21T06:51:47.848Z,74.32
2023-05-21T06:54:15.573Z,73.85
2023-05-21T06:56:45.022Z,74.45
2023-05-21T06:59:12.862Z,71.76
2023-05-21T07:01:42.887Z,68.15
2023-05-21T07:06:40.241Z,65.99
2023-05-21T07:09:08.720Z,65.53
2023-05-21T07:11:37.410Z,64.67
2023-05-21T07:14:09.644Z,61.79
2023-05-21T07:16:39.347Z,62.52
2023-05-21T07:19:08.316Z,61.84
2023-05-21T07:21:36.905Z,60.77
2023-05-21T07:24:07.240Z,60.68
2023-05-21T07:26:38.635Z,58.84
2023-05-21T07:29:08.042Z,59.23
2023-05-21T07:31:36.980Z,59.71
2023-05-21T07:34:04.828Z,59.18
2023-05-21T07:36:35.421Z,57.08
2023-05-21T07:39:03.893Z,59.57
2023-05-21T07:41:32.979Z,58.96
2023-05-21T07:44:03.512Z,60.01
2023-05-21T07:46:35.400Z,57.72
2023-05-21T07:49:04.561Z,60.35
2023-05-21T07:51:32.708Z,60.77
2023-05-21T07:54:00.473Z,59.53
2023-05-21T07:56:33.480Z,60.52
2023-05-21T07:59:01.749Z,59.68
2023-05-21T08:01:30.773Z,58.46
2023-05-21T08:04:05.887Z,57.34
2023-05-21T08:06:37.482Z,59.91
2023-05-21T08:09:06.471Z,59.86
2023-05-21T08:11:34.416Z,61.03
2023-05-21T08:14:02.935Z,59.11
2023-05-21T08:16:31.497Z,60.03
2023-05-21T08:19:01.287Z,61.97
2023-05-21T08:21:29.144Z,60.12
2023-05-21T08:23:57.597Z,59.62
2023-05-21T08:26:26.184Z,61.64
2023-05-21T08:28:54.209Z,60.93
2023-05-21T08:31:22.312Z,61.24
2023-05-21T08:33:52.868Z,61.09
2023-05-21T08:36:27.524Z,62.40
2023-05-21T08:39:01.495Z,64.37
2023-05-21T08:41:39.681Z,60.96
2023-05-21T08:44:12.253Z,60.82
2023-05-21T08:46:42.692Z,60.35
2023-05-21T08:49:14.055Z,59.83
2023-05-21T08:51:44.416Z,59.48
2023-05-21T08:54:14.059Z,61.07
2023-05-21T08:56:46.888Z,59.62
2023-05-21T08:59:16.341Z,58.94
2023-05-21T09:01:46.922Z,58.20
2023-05-21T09:04:25.237Z,57.68
2023-05-21T09:06:57.818Z,59.22
2023-05-21T09:09:53.916Z,59.14
2023-05-21T09:12:21.670Z,58.21
2023-05-21T09:14:51.133Z,56.92
2023-05-21T09:17:21.923Z,57.37
2023-05-21T09:20:09.742Z,57.63
2023-05-21T09:22:41.607Z,57.34
2023-05-21T09:25:12.000Z,57.12
2023-05-21T09:27:40.405Z,56.03
2023-05-21T09:30:11.941Z,55.12
2023-05-21T09:32:40.273Z,55.12
2023-05-21T09:35:10.119Z,54.68
2023-05-21T09:37:40.515Z,52.97
2023-05-21T09:40:12.481Z,52.53
2023-05-21T09:42:41.077Z,51.76
2023-05-21T09:45:10.427Z,50.46
2023-05-21T09:47:43.533Z,47.97
2023-05-21T09:50:12.513Z,44.18
2023-05-21T09:52:42.344Z,46.75
2023-05-21T09:55:13.164Z,46.36
2023-05-21T09:57:44.831Z,45.01
2023-05-21T10:00:20.024Z,46.96
2023-05-21T10:02:49.642Z,46.07
2023-05-21T10:05:18.448Z,47.60
2023-05-21T10:07:51.790Z,46.52
2023-05-21T10:10:21.441Z,44.94
2023-05-21T10:12:53.073Z,45.89
2023-05-21T10:15:24.862Z,46.86
2023-05-21T10:17:53.472Z,46.13
2023-05-21T10:20:21.651Z,46.41
2023-05-21T10:22:52.420Z,45.60
2023-05-21T10:25:21.184Z,45.44
2023-05-21T10:27:50.001Z,45.33
2023-05-21T10:30:19.413Z,44.60
2023-05-21T10:32:49.068Z,45.14
2023-05-21T10:35:17.854Z,46.34
2023-05-21T10:37:46.476Z,46.63
2023-05-21T10:40:15.694Z,46.04
2023-05-21T10:43:08.730Z,44.36
2023-05-21T10:45:48.554Z,45.02
2023-05-21T10:48:36.544Z,44.31
2023-05-21T10:51:16.036Z,45.37
2023-05-21T10:53:58.899Z,44.84
2023-05-21T10:56:32.679Z,45.02
2023-05-21T10:59:15.183Z,44.06
2023-05-21T11:01:43.515Z,43.59
2023-05-21T11:04:14.491Z,45.41
2023-05-21T11:06:49.533Z,45.67
2023-05-21T11:09:17.520Z,45.29
2023-05-21T11:11:48.387Z,43.95
2023-05-21T11:14:35.183Z,45.88
2023-05-21T11:17:04.969Z,43.88
2023-05-21T11:19:43.853Z,44.64
2023-05-21T11:22:23.153Z,43.00
2023-05-21T11:24:52.062Z,43.85
2023-05-21T11:27:35.527Z,42.86
2023-05-21T11:30:07.939Z,43.00
2023-05-21T11:32:39.399Z,41.86
2023-05-21T11:35:08.732Z,41.95
2023-05-21T11:37:40.585Z,40.71
2023-05-21T11:40:26.611Z,43.44
2023-05-21T11:42:57.532Z,43.09
2023-05-21T11:45:30.744Z,38.85
2023-05-21T11:47:59.132Z,40.67
2023-05-21T11:50:27.275Z,39.58
2023-05-21T11:52:55.978Z,37.74
2023-05-21T11:55:26.127Z,39.69
2023-05-21T11:57:56.453Z,37.70
2023-05-21T12:00:24.845Z,38.96
2023-05-21T12:02:55.318Z,39.59
2023-05-21T12:05:23.900Z,38.55
2023-05-21T12:07:51.772Z,38.55
2023-05-21T12:10:23.644Z,38.13
2023-05-21T12:12:55.823Z,38.32
2023-05-21T12:15:27.966Z,37.20
2023-05-21T12:17:56.884Z,38.95
2023-05-21T12:20:28.597Z,37.48
2023-05-21T12:22:58.748Z,37.58
2023-05-21T12:25:27.604Z,38.75
2023-05-21T12:27:58.223Z,40.27
2023-05-21T12:30:28.178Z,40.63
2023-05-21T12:33:02.194Z,37.71
2023-05-21T12:35:31.699Z,38.78
2023-05-21T12:38:01.986Z,38.89
2023-05-21T12:40:38.702Z,40.73
2023-05-21T12:43:07.850Z,39.38
2023-05-21T12:45:39.624Z,40.29
2023-05-21T12:48:07.806Z,38.10
2023-05-21T12:50:36.466Z,38.86
2023-05-21T12:53:05.604Z,38.59
2023-05-21T12:55:33.344Z,38.24
2023-05-21T12:58:04.341Z,38.79
2023-05-21T13:00:33.272Z,39.32
2023-05-21T13:03:06.069Z,37.79
2023-05-21T13:05:34.341Z,37.48
2023-05-21T13:08:03.017Z,38.31
2023-05-21T13:10:30.843Z,37.62
2023-05-21T13:12:59.583Z,37.44
2023-05-21T13:15:27.658Z,35.82
2023-05-21T13:17:56.963Z,37.84
2023-05-21T13:20:27.849Z,36.35
2023-05-21T13:22:55.942Z,36.59
2023-05-21T13:25:28.825Z,34.15
2023-05-21T13:27:58.294Z,38.01
2023-05-21T13:30:26.196Z,34.67
2023-05-21T13:32:54.320Z,34.54
2023-05-21T13:35:22.821Z,34.80
2023-05-21T13:37:52.086Z,36.58
2023-05-21T13:40:20.280Z,36.29
2023-05-21T13:42:49.536Z,36.72
2023-05-21T13:45:19.387Z,36.28
2023-05-21T13:47:48.285Z,35.27
2023-05-21T13:50:17.444Z,35.18
2023-05-21T13:52:45.334Z,34.88
2023-05-21T13:55:15.790Z,36.25
2023-05-21T13:57:44.020Z,33.78
2023-05-21T14:00:14.244Z,35.10
2023-05-21T14:02:42.986Z,35.35
2023-05-21T14:05:12.279Z,34.45
2023-05-21T14:07:40.842Z,34.37
2023-05-21T14:10:10.014Z,35.38
2023-05-21T14:12:39.124Z,33.61
2023-05-21T14:15:08.418Z,32.68
2023-05-21T14:17:36.435Z,32.93
2023-05-21T14:20:04.339Z,35.37
2023-05-21T14:22:32.557Z,33.50
2023-05-21T14:25:00.228Z,33.21
2023-05-21T14:27:28.764Z,33.04
2023-05-21T14:29:57.805Z,33.60
2023-05-21T14:32:25.995Z,32.80
2023-05-21T14:34:53.752Z,32.38
2023-05-21T14:37:22.076Z,31.51
2023-05-21T14:39:49.774Z,30.51
2023-05-21T14:42:17.819Z,31.75
2023-05-21T14:44:46.010Z,31.84
2023-05-21T14:47:15.183Z,32.00
2023-05-21T14:49:43.319Z,32.70
2023-05-21T14:52:11.713Z,32.50
2023-05-21T14:54:39.533Z,32.60
2023-05-21T14:57:07.550Z,33.09
2023-05-21T14:59:35.215Z,34.09
2023-05-21T15:02:03.485Z,36.21
2023-05-21T15:04:32.592Z,35.37
2023-05-21T15:07:00.447Z,35.79
2023-05-21T15:09:28.445Z,31.99
2023-05-21T15:11:56.190Z,33.87
2023-05-21T15:14:24.383Z,36.53
2023-05-21T15:16:52.174Z,36.65
2023-05-21T15:19:20.751Z,37.72
2023-05-21T15:21:51.675Z,37.23
2023-05-21T15:24:19.473Z,36.53
2023-05-21T15:26:49.335Z,37.40
2023-05-21T15:29:17.046Z,36.47
2023-05-21T15:31:45.105Z,37.11
2023-05-21T15:34:13.661Z,39.29
2023-05-21T15:36:41.992Z,39.32
2023-05-21T15:39:11.137Z,41.83
2023-05-21T15:41:38.847Z,38.51
2023-05-21T15:44:06.964Z,36.97
2023-05-21T15:46:34.765Z,38.70
2023-05-21T15:49:02.807Z,37.23
2023-05-21T15:51:30.649Z,38.69
2023-05-21T15:53:58.659Z,40.69
2023-05-21T15:56:27.715Z,40.79
2023-05-21T15:58:58.770Z,41.88
2023-05-21T16:01:27.675Z,43.90
2023-05-21T16:03:55.541Z,46.01
2023-05-21T16:06:23.613Z,45.14
2023-05-21T16:08:51.306Z,45.81
2023-05-21T16:11:19.320Z,44.55
2023-05-21T16:13:48.406Z,46.11
2023-05-21T16:16:16.425Z,45.81
2023-05-21T16:18:44.344Z,47.48
2023-05-21T16:21:12.344Z,49.58
2023-05-21T16:23:40.360Z,50.43
2023-05-21T16:26:09.306Z,42.18
2023-05-21T16:28:37.831Z,43.75
2023-05-21T16:31:08.435Z,47.69
2023-05-21T16:33:36.256Z,47.88
2023-05-21T16:36:04.130Z,49.87
2023-05-21T16:38:32.179Z,50.95
2023-05-21T16:40:59.923Z,52.91
2023-05-21T16:43:27.667Z,51.98
2023-05-21T16:45:55.769Z,51.31
2023-05-21T16:48:24.947Z,50.17
2023-05-21T16:50:52.836Z,51.58
2023-05-21T16:53:20.515Z,50.28
2023-05-21T16:55:48.420Z,50.07
2023-05-21T16:58:16.052Z,50.37
2023-05-21T17:00:43.775Z,50.69
2023-05-21T17:03:12.156Z,48.98
2023-05-21T17:05:41.302Z,50.84
2023-05-21T17:08:09.994Z,51.97
2023-05-21T17:10:37.739Z,52.37
2023-05-21T17:13:17.387Z,51.06
2023-05-21T17:15:48.989Z,50.61
2023-05-21T17:18:16.871Z,52.89
2023-05-21T17:20:46.088Z,55.15
2023-05-21T17:23:14.310Z,56.29
2023-05-21T17:25:42.099Z,56.10
2023-05-21T17:28:09.878Z,57.97
2023-05-21T17:30:37.911Z,57.82
2023-05-21T17:33:06.490Z,59.88
2023-05-21T17:35:35.968Z,57.84
2023-05-21T17:38:05.212Z,61.28
2023-05-21T17:40:33.220Z,61.31
2023-05-21T17:43:01.018Z,60.31
2023-05-21T17:45:28.818Z,61.37
2023-05-21T17:47:59.678Z,61.17
2023-05-21T17:50:28.125Z,61.98
2023-05-21T17:52:56.139Z,61.96
2023-05-21T17:55:25.304Z,63.12
2023-05-21T17:57:53.025Z,63.48
2023-05-21T18:00:21.313Z,61.80
2023-05-21T18:02:49.404Z,62.98
2023-05-21T18:05:17.198Z,63.71
2023-05-21T18:07:45.168Z,63.92
2023-05-21T18:10:15.037Z,64.43
2023-05-21T18:12:46.484Z,64.87
2023-05-21T18:15:15.079Z,64.40
2023-05-21T18:17:43.078Z,62.17
2023-05-21T18:20:12.092Z,61.35
2023-05-21T18:22:39.956Z,62.73
2023-05-21T18:25:09.101Z,62.92
2023-05-21T18:27:36.809Z,62.75
2023-05-21T18:30:08.089Z,62.87
2023-05-21T18:32:38.365Z,62.56
2023-05-21T18:35:07.484Z,62.92
2023-05-21T18:37:35.189Z,63.01
2023-05-21T18:40:05.451Z,64.00
2023-05-21T18:42:33.728Z,65.68
2023-05-21T18:45:10.052Z,65.43
2023-05-21T18:47:39.303Z,65.32
2023-05-21T18:50:09.030Z,66.05
2023-05-21T18:52:37.014Z,66.13
2023-05-21T18:55:05.486Z,66.40
2023-05-21T18:57:34.887Z,66.64
2023-05-21T19:00:03.248Z,68.13
2023-05-21T19:02:32.417Z,68.23
2023-05-21T19:05:01.941Z,68.88
2023-05-21T19:07:30.235Z,70.12
2023-05-21T19:10:00.198Z,70.47
2023-05-21T19:12:29.300Z,70.32
2023-05-21T19:14:57.481Z,70.73
2023-05-21T19:17:25.256Z,70.47
2023-05-21T19:19:56.339Z,69.01
2023-05-21T19:22:24.781Z,66.54
2023-05-21T19:24:53.313Z,67.63
2023-05-21T19:27:21.379Z,67.02
2023-05-21T19:29:49.454Z,65.85
2023-05-21T19:32:18.038Z,65.40
2023-05-21T19:34:46.536Z,63.70
2023-05-21T19:37:15.636Z,63.65
2023-05-21T19:39:44.576Z,62.59
2023-05-21T19:42:12.251Z,64.50
2023-05-21T19:44:41.447Z,64.41
2023-05-21T19:47:09.392Z,63.65
2023-05-21T19:49:37.041Z,62.74
2023-05-21T19:52:06.441Z,64.72
2023-05-21T19:54:35.644Z,64.21
2023-05-21T19:57:03.661Z,64.42
2023-05-21T19:59:31.399Z,64.08
2023-05-21T20:01:59.382Z,63.96
2023-05-21T20:04:28.122Z,64.70
2023-05-21T20:06:56.236Z,63.78
2023-05-21T20:09:24.015Z,64.00
2023-05-21T20:11:53.100Z,64.60
2023-05-21T20:14:21.008Z,64.62
2023-05-21T20:16:49.381Z,64.85
2023-05-21T20:19:17.616Z,65.00
2023-05-21T20:21:45.346Z,64.46
2023-05-21T20:24:13.331Z,64.09
2023-05-21T20:26:41.135Z,64.59
2023-05-21T20:29:10.151Z,64.15
2023-05-21T20:31:38.632Z,63.51
2023-05-21T20:34:07.582Z,64.88
2023-05-21T20:36:36.153Z,64.21
2023-05-21T20:39:04.039Z,65.60
2023-05-21T20:41:36.042Z,66.27
2023-05-21T20:44:05.345Z,66.32
2023-05-21T20:46:39.214Z,66.22
2023-05-21T20:49:07.422Z,67.13
2023-05-21T20:51:35.254Z,67.35
2023-05-21T20:54:02.922Z,67.48
2023-05-21T20:56:41.552Z,67.62
2023-05-21T20:59:11.057Z,67.47
2023-05-21T21:01:40.766Z,66.42
2023-05-21T21:04:09.213Z,65.30
2023-05-21T21:06:38.375Z,65.72
2023-05-21T21:09:06.460Z,64.86
2023-05-21T21:11:34.299Z,64.57
2023-05-21T21:14:02.892Z,64.95
2023-05-21T21:16:30.642Z,64.28
2023-05-21T21:19:00.110Z,64.63
2023-05-21T21:21:28.692Z,65.13
2023-05-21T21:23:56.324Z,65.66
2023-05-21T21:26:24.577Z,65.53
2023-05-21T21:28:52.325Z,66.06
2023-05-21T21:31:20.237Z,65.87
2023-05-21T21:33:47.982Z,67.12
2023-05-21T21:36:17.085Z,67.03
2023-05-21T21:38:45.133Z,66.15
2023-05-21T21:41:13.150Z,65.86
2023-05-21T21:43:40.879Z,67.06
2023-05-21T21:46:08.660Z,66.88
2023-05-21T21:48:36.622Z,67.67
2023-05-21T21:51:04.653Z,67.97
2023-05-21T21:53:33.879Z,68.08
2023-05-21T21:56:01.626Z,67.06
2023-05-21T21:58:29.490Z,68.31
2023-05-21T22:00:57.787Z,66.90
2023-05-21T22:03:25.773Z,68.06
2023-05-21T22:05:55.091Z,68.20
2023-05-21T22:08:23.007Z,67.79
2023-05-21T22:10:52.415Z,68.59
2023-05-21T22:13:20.363Z,67.48
2023-05-21T22:15:49.006Z,67.41
2023-05-21T22:18:22.466Z,67.38
2023-05-21T22:20:56.090Z,67.09
2023-05-21T22:23:24.031Z,66.61
2023-05-21T22:25:53.028Z,67.78
2023-05-21T22:28:22.636Z,66.05
2023-05-21T22:30:50.411Z,65.90
2023-05-21T22:33:18.549Z,65.98
2023-05-21T22:35:46.468Z,66.97
2023-05-21T22:38:14.206Z,67.92
2023-05-21T22:40:41.914Z,70.19
2023-05-21T22:43:11.052Z,71.10
2023-05-21T22:45:39.368Z,72.59
2023-05-21T22:48:08.779Z,73.00
2023-05-21T22:50:38.283Z,73.76
2023-05-21T22:53:06.976Z,74.98
2023-05-21T22:55:34.797Z,75.32
2023-05-21T22:58:03.556Z,75.96
2023-05-21T23:00:32.647Z,76.23
2023-05-21T23:03:00.816Z,76.93
2023-05-21T23:05:28.509Z,76.35
2023-05-21T23:07:56.563Z,76.60
2023-05-21T23:10:24.314Z,77.08
2023-05-21T23:12:52.399Z,76.89
2023-05-21T23:15:20.237Z,76.61
2023-05-21T23:17:49.685Z,76.22
2023-05-21T23:20:17.687Z,75.25
2023-05-21T23:22:45.429Z,75.59
2023-05-21T23:25:13.340Z,74.94
2023-05-21T23:27:41.058Z,74.89
2023-05-21T23:30:10.803Z,75.98
2023-05-21T23:32:38.739Z,76.90
2023-05-21T23:35:09.506Z,76.42
2023-05-21T23:37:37.398Z,77.15
2023-05-21T23:40:06.881Z,77.42
2023-05-21T23:42:34.672Z,78.38
2023-05-21T23:45:02.689Z,78.74
2023-05-21T23:47:30.414Z,79.34
2023-05-21T23:49:58.348Z,79.69
2023-05-21T23:52:27.675Z,79.75
2023-05-21T23:54:55.679Z,80.44
2023-05-21T23:57:23.390Z,80.60
2023-05-21T23:59:51.493Z,80.91
